sensor_id;sensor_type;location;lat;lon;timestamp;P1;durP1;ratioP1;P2;durP2;ratioP2
11125;SDS011;5617;54.046;10.676;2022-09-13T00:00:13;1.73;;;1.63;;
11125;SDS011;5617;54.046;10.676;2022-09-13T00:02:20;1.80;;;1.70;;
11125;SDS011;5617;54.046;10.676;2022-09-13T00:04:28;1.70;;;1.60;;
11125;SDS011;5617;54.046;10.676;2022-09-13T00:06:36;2.37;;;1.70;;
11125;SDS011;5617;54.046;10.676;2022-09-13T00:08:43;1.83;;;1.73;;
11125;SDS011;5617;54.046;10.676;2022-09-13T00:10:53;1.83;;;1.73;;
11125;SDS011;5617;54.046;10.676;2022-09-13T00:13:00;2.13;;;1.93;;
11125;SDS011;5617;54.046;10.676;2022-09-13T00:15:08;2.37;;;1.83;;
11125;SDS011;5617;54.046;10.676;2022-09-13T00:17:16;1.60;;;1.50;;
11125;SDS011;5617;54.046;10.676;2022-09-13T00:19:24;1.90;;;1.60;;
11125;SDS011;5617;54.046;10.676;2022-09-13T00:21:31;1.80;;;1.70;;
11125;SDS011;5617;54.046;10.676;2022-09-13T00:23:39;1.90;;;1.73;;
11125;SDS011;5617;54.046;10.676;2022-09-13T00:25:49;2.77;;;2.10;;
11125;SDS011;5617;54.046;10.676;2022-09-13T00:27:58;1.90;;;1.80;;
11125;SDS011;5617;54.046;10.676;2022-09-13T00:30:06;1.73;;;1.63;;
11125;SDS011;5617;54.046;10.676;2022-09-13T00:32:15;2.50;;;1.80;;
11125;SDS011;5617;54.046;10.676;2022-09-13T00:34:23;1.77;;;1.67;;
11125;SDS011;5617;54.046;10.676;2022-09-13T00:36:30;1.83;;;1.73;;
11125;SDS011;5617;54.046;10.676;2022-09-13T00:38:38;2.03;;;1.67;;
11125;SDS011;5617;54.046;10.676;2022-09-13T00:40:46;2.50;;;1.90;;
11125;SDS011;5617;54.046;10.676;2022-09-13T00:42:54;2.53;;;1.90;;
11125;SDS011;5617;54.046;10.676;2022-09-13T00:45:13;2.10;;;1.90;;
11125;SDS011;5617;54.046;10.676;2022-09-13T00:47:23;2.70;;;1.90;;
11125;SDS011;5617;54.046;10.676;2022-09-13T00:49:35;2.67;;;2.00;;
11125;SDS011;5617;54.046;10.676;2022-09-13T00:51:44;2.40;;;2.00;;
11125;SDS011;5617;54.046;10.676;2022-09-13T00:53:54;2.90;;;2.07;;
11125;SDS011;5617;54.046;10.676;2022-09-13T00:56:05;2.30;;;2.10;;
11125;SDS011;5617;54.046;10.676;2022-09-13T00:58:15;3.43;;;1.90;;
11125;SDS011;5617;54.046;10.676;2022-09-13T01:00:28;2.40;;;2.20;;
11125;SDS011;5617;54.046;10.676;2022-09-13T01:02:35;2.40;;;2.20;;
11125;SDS011;5617;54.046;10.676;2022-09-13T01:04:44;2.63;;;2.43;;
11125;SDS011;5617;54.046;10.676;2022-09-13T01:06:52;2.47;;;2.27;;
11125;SDS011;5617;54.046;10.676;2022-09-13T01:09:03;2.70;;;2.20;;
11125;SDS011;5617;54.046;10.676;2022-09-13T01:11:17;2.57;;;2.37;;
11125;SDS011;5617;54.046;10.676;2022-09-13T01:13:30;3.13;;;2.87;;
11125;SDS011;5617;54.046;10.676;2022-09-13T01:15:41;2.60;;;2.50;;
11125;SDS011;5617;54.046;10.676;2022-09-13T01:17:49;2.90;;;2.70;;
11125;SDS011;5617;54.046;10.676;2022-09-13T01:19:58;2.87;;;2.67;;
11125;SDS011;5617;54.046;10.676;2022-09-13T01:22:14;3.07;;;2.83;;
11125;SDS011;5617;54.046;10.676;2022-09-13T01:24:44;3.10;;;2.90;;
11125;SDS011;5617;54.046;10.676;2022-09-13T01:27:10;3.20;;;2.77;;
11125;SDS011;5617;54.046;10.676;2022-09-13T01:29:40;3.00;;;2.80;;
11125;SDS011;5617;54.046;10.676;2022-09-13T01:32:10;2.93;;;2.73;;
11125;SDS011;5617;54.046;10.676;2022-09-13T01:34:26;3.00;;;2.80;;
11125;SDS011;5617;54.046;10.676;2022-09-13T01:39:30;3.67;;;2.73;;
11125;SDS011;5617;54.046;10.676;2022-09-13T01:41:52;3.20;;;3.00;;
11125;SDS011;5617;54.046;10.676;2022-09-13T01:44:07;2.97;;;2.77;;
11125;SDS011;5617;54.046;10.676;2022-09-13T01:46:27;2.63;;;2.43;;
11125;SDS011;5617;54.046;10.676;2022-09-13T01:48:44;3.20;;;3.00;;
11125;SDS011;5617;54.046;10.676;2022-09-13T01:51:03;3.53;;;2.90;;
11125;SDS011;5617;54.046;10.676;2022-09-13T01:53:17;3.17;;;2.87;;
11125;SDS011;5617;54.046;10.676;2022-09-13T01:55:31;3.20;;;2.90;;
11125;SDS011;5617;54.046;10.676;2022-09-13T01:57:45;3.23;;;2.93;;
11125;SDS011;5617;54.046;10.676;2022-09-13T01:59:59;4.57;;;3.20;;
11125;SDS011;5617;54.046;10.676;2022-09-13T02:02:13;3.50;;;3.20;;
11125;SDS011;5617;54.046;10.676;2022-09-13T02:04:26;3.23;;;3.03;;
11125;SDS011;5617;54.046;10.676;2022-09-13T02:06:42;3.33;;;3.00;;
11125;SDS011;5617;54.046;10.676;2022-09-13T02:08:53;3.20;;;2.93;;
11125;SDS011;5617;54.046;10.676;2022-09-13T02:11:05;3.80;;;3.50;;
11125;SDS011;5617;54.046;10.676;2022-09-13T02:13:17;3.53;;;3.23;;
11125;SDS011;5617;54.046;10.676;2022-09-13T02:15:28;3.37;;;3.07;;
11125;SDS011;5617;54.046;10.676;2022-09-13T02:17:42;3.30;;;3.10;;
11125;SDS011;5617;54.046;10.676;2022-09-13T02:19:54;3.90;;;3.60;;
11125;SDS011;5617;54.046;10.676;2022-09-13T02:22:05;3.77;;;3.47;;
11125;SDS011;5617;54.046;10.676;2022-09-13T02:24:16;4.73;;;3.30;;
11125;SDS011;5617;54.046;10.676;2022-09-13T02:26:27;3.27;;;3.00;;
11125;SDS011;5617;54.046;10.676;2022-09-13T02:28:37;3.63;;;3.43;;
11125;SDS011;5617;54.046;10.676;2022-09-13T02:30:50;4.33;;;3.60;;
11125;SDS011;5617;54.046;10.676;2022-09-13T02:33:02;4.43;;;3.43;;
11125;SDS011;5617;54.046;10.676;2022-09-13T02:35:13;3.93;;;3.53;;
11125;SDS011;5617;54.046;10.676;2022-09-13T02:37:24;4.40;;;3.60;;
11125;SDS011;5617;54.046;10.676;2022-09-13T02:39:35;3.90;;;3.60;;
11125;SDS011;5617;54.046;10.676;2022-09-13T02:41:59;5.27;;;3.53;;
11125;SDS011;5617;54.046;10.676;2022-09-13T02:44:13;4.53;;;4.10;;
11125;SDS011;5617;54.046;10.676;2022-09-13T02:46:26;5.20;;;3.60;;
11125;SDS011;5617;54.046;10.676;2022-09-13T02:48:48;4.20;;;3.80;;
11125;SDS011;5617;54.046;10.676;2022-09-13T02:51:01;4.10;;;3.80;;
11125;SDS011;5617;54.046;10.676;2022-09-13T02:53:19;4.20;;;3.80;;
11125;SDS011;5617;54.046;10.676;2022-09-13T02:55:35;4.70;;;4.27;;
11125;SDS011;5617;54.046;10.676;2022-09-13T02:57:51;4.30;;;3.90;;
11125;SDS011;5617;54.046;10.676;2022-09-13T03:00:06;4.33;;;3.90;;
11125;SDS011;5617;54.046;10.676;2022-09-13T03:02:15;4.27;;;3.97;;
11125;SDS011;5617;54.046;10.676;2022-09-13T03:04:27;4.30;;;3.93;;
11125;SDS011;5617;54.046;10.676;2022-09-13T03:06:36;4.03;;;3.60;;
11125;SDS011;5617;54.046;10.676;2022-09-13T03:08:44;4.63;;;4.23;;
11125;SDS011;5617;54.046;10.676;2022-09-13T03:10:55;4.40;;;4.10;;
11125;SDS011;5617;54.046;10.676;2022-09-13T03:13:15;4.63;;;4.13;;
11125;SDS011;5617;54.046;10.676;2022-09-13T03:15:44;4.47;;;4.17;;
11125;SDS011;5617;54.046;10.676;2022-09-13T03:18:06;4.57;;;4.17;;
11125;SDS011;5617;54.046;10.676;2022-09-13T03:20:27;4.37;;;4.07;;
11125;SDS011;5617;54.046;10.676;2022-09-13T03:22:52;4.83;;;4.43;;
11125;SDS011;5617;54.046;10.676;2022-09-13T03:25:16;5.87;;;4.57;;
11125;SDS011;5617;54.046;10.676;2022-09-13T03:27:33;5.07;;;4.60;;
11125;SDS011;5617;54.046;10.676;2022-09-13T03:29:49;4.77;;;4.33;;
11125;SDS011;5617;54.046;10.676;2022-09-13T03:32:04;4.50;;;4.20;;
11125;SDS011;5617;54.046;10.676;2022-09-13T03:34:25;4.67;;;4.27;;
11125;SDS011;5617;54.046;10.676;2022-09-13T03:36:43;4.87;;;4.37;;
11125;SDS011;5617;54.046;10.676;2022-09-13T03:38:59;5.13;;;4.63;;
11125;SDS011;5617;54.046;10.676;2022-09-13T03:41:14;5.00;;;4.50;;
11125;SDS011;5617;54.046;10.676;2022-09-13T03:43:26;5.17;;;4.77;;
11125;SDS011;5617;54.046;10.676;2022-09-13T03:45:41;5.40;;;5.00;;
11125;SDS011;5617;54.046;10.676;2022-09-13T03:47:52;6.10;;;5.60;;
11125;SDS011;5617;54.046;10.676;2022-09-13T03:50:00;6.10;;;5.50;;
11125;SDS011;5617;54.046;10.676;2022-09-13T03:52:11;5.43;;;4.93;;
11125;SDS011;5617;54.046;10.676;2022-09-13T03:54:19;6.23;;;5.63;;
11125;SDS011;5617;54.046;10.676;2022-09-13T03:56:29;6.57;;;5.50;;
11125;SDS011;5617;54.046;10.676;2022-09-13T03:58:37;7.27;;;6.10;;
11125;SDS011;5617;54.046;10.676;2022-09-13T04:00:45;7.27;;;6.57;;
11125;SDS011;5617;54.046;10.676;2022-09-13T04:02:54;7.20;;;6.50;;
11125;SDS011;5617;54.046;10.676;2022-09-13T04:05:02;7.90;;;7.10;;
11125;SDS011;5617;54.046;10.676;2022-09-13T04:07:14;8.07;;;7.27;;
11125;SDS011;5617;54.046;10.676;2022-09-13T04:09:23;9.10;;;8.20;;
11125;SDS011;5617;54.046;10.676;2022-09-13T04:11:31;8.37;;;7.27;;
11125;SDS011;5617;54.046;10.676;2022-09-13T04:13:38;8.93;;;7.97;;
11125;SDS011;5617;54.046;10.676;2022-09-13T04:15:47;9.30;;;8.20;;
11125;SDS011;5617;54.046;10.676;2022-09-13T04:17:55;9.57;;;8.57;;
11125;SDS011;5617;54.046;10.676;2022-09-13T04:20:03;9.13;;;8.23;;
11125;SDS011;5617;54.046;10.676;2022-09-13T04:22:12;9.77;;;8.77;;
11125;SDS011;5617;54.046;10.676;2022-09-13T04:24:22;9.63;;;8.67;;
11125;SDS011;5617;54.046;10.676;2022-09-13T04:26:31;11.00;;;8.80;;
11125;SDS011;5617;54.046;10.676;2022-09-13T04:28:39;10.03;;;9.03;;
11125;SDS011;5617;54.046;10.676;2022-09-13T04:30:48;11.43;;;10.00;;
11125;SDS011;5617;54.046;10.676;2022-09-13T04:32:55;11.30;;;10.10;;
11125;SDS011;5617;54.046;10.676;2022-09-13T04:35:04;12.37;;;9.97;;
11125;SDS011;5617;54.046;10.676;2022-09-13T04:37:14;11.17;;;10.00;;
11125;SDS011;5617;54.046;10.676;2022-09-13T04:39:21;12.33;;;10.53;;
11125;SDS011;5617;54.046;10.676;2022-09-13T04:41:29;12.03;;;10.73;;
11125;SDS011;5617;54.046;10.676;2022-09-13T04:43:39;14.33;;;10.80;;
11125;SDS011;5617;54.046;10.676;2022-09-13T04:45:47;12.47;;;11.20;;
11125;SDS011;5617;54.046;10.676;2022-09-13T04:47:54;13.10;;;11.60;;
11125;SDS011;5617;54.046;10.676;2022-09-13T04:50:02;15.50;;;12.00;;
11125;SDS011;5617;54.046;10.676;2022-09-13T04:52:10;12.83;;;11.13;;
11125;SDS011;5617;54.046;10.676;2022-09-13T04:54:19;14.77;;;10.90;;
11125;SDS011;5617;54.046;10.676;2022-09-13T04:56:27;15.10;;;12.03;;
11125;SDS011;5617;54.046;10.676;2022-09-13T04:58:35;14.33;;;11.70;;
11125;SDS011;5617;54.046;10.676;2022-09-13T05:00:42;14.70;;;11.97;;
11125;SDS011;5617;54.046;10.676;2022-09-13T05:02:53;14.87;;;11.80;;
11125;SDS011;5617;54.046;10.676;2022-09-13T05:05:01;14.27;;;11.73;;
11125;SDS011;5617;54.046;10.676;2022-09-13T05:07:09;16.60;;;12.97;;
11125;SDS011;5617;54.046;10.676;2022-09-13T05:09:17;15.97;;;12.37;;
11125;SDS011;5617;54.046;10.676;2022-09-13T05:11:27;14.27;;;12.77;;
11125;SDS011;5617;54.046;10.676;2022-09-13T05:13:35;17.83;;;12.97;;
11125;SDS011;5617;54.046;10.676;2022-09-13T05:15:45;15.10;;;13.10;;
11125;SDS011;5617;54.046;10.676;2022-09-13T05:17:53;16.13;;;12.73;;
11125;SDS011;5617;54.046;10.676;2022-09-13T05:20:00;15.47;;;12.63;;
11125;SDS011;5617;54.046;10.676;2022-09-13T05:22:09;16.43;;;13.27;;
11125;SDS011;5617;54.046;10.676;2022-09-13T05:24:17;16.20;;;13.00;;
11125;SDS011;5617;54.046;10.676;2022-09-13T05:26:25;16.73;;;13.73;;
11125;SDS011;5617;54.046;10.676;2022-09-13T05:28:36;17.17;;;13.53;;
11125;SDS011;5617;54.046;10.676;2022-09-13T05:30:52;16.33;;;13.80;;
11125;SDS011;5617;54.046;10.676;2022-09-13T05:33:01;16.60;;;13.57;;
11125;SDS011;5617;54.046;10.676;2022-09-13T05:35:08;17.10;;;14.33;;
11125;SDS011;5617;54.046;10.676;2022-09-13T05:37:17;18.33;;;15.40;;
11125;SDS011;5617;54.046;10.676;2022-09-13T05:39:24;17.97;;;14.77;;
11125;SDS011;5617;54.046;10.676;2022-09-13T05:41:34;16.33;;;13.70;;
11125;SDS011;5617;54.046;10.676;2022-09-13T05:43:42;17.40;;;13.80;;
11125;SDS011;5617;54.046;10.676;2022-09-13T05:45:49;16.93;;;13.70;;
11125;SDS011;5617;54.046;10.676;2022-09-13T05:47:58;18.17;;;14.90;;
11125;SDS011;5617;54.046;10.676;2022-09-13T05:50:06;18.33;;;14.10;;
11125;SDS011;5617;54.046;10.676;2022-09-13T05:52:14;17.77;;;13.63;;
11125;SDS011;5617;54.046;10.676;2022-09-13T05:54:22;17.50;;;14.13;;
11125;SDS011;5617;54.046;10.676;2022-09-13T05:56:29;17.10;;;13.73;;
11125;SDS011;5617;54.046;10.676;2022-09-13T05:58:39;17.10;;;13.47;;
11125;SDS011;5617;54.046;10.676;2022-09-13T06:00:51;16.37;;;12.23;;
11125;SDS011;5617;54.046;10.676;2022-09-13T06:02:59;14.60;;;11.60;;
11125;SDS011;5617;54.046;10.676;2022-09-13T06:05:07;14.87;;;12.00;;
11125;SDS011;5617;54.046;10.676;2022-09-13T06:07:15;15.37;;;11.97;;
11125;SDS011;5617;54.046;10.676;2022-09-13T06:09:23;18.53;;;12.13;;
11125;SDS011;5617;54.046;10.676;2022-09-13T06:11:31;14.50;;;11.20;;
11125;SDS011;5617;54.046;10.676;2022-09-13T06:13:40;15.60;;;11.33;;
11125;SDS011;5617;54.046;10.676;2022-09-13T06:15:48;12.27;;;10.50;;
11125;SDS011;5617;54.046;10.676;2022-09-13T06:17:57;14.57;;;11.40;;
11125;SDS011;5617;54.046;10.676;2022-09-13T06:20:05;13.17;;;10.50;;
11125;SDS011;5617;54.046;10.676;2022-09-13T06:22:13;14.47;;;10.40;;
11125;SDS011;5617;54.046;10.676;2022-09-13T06:24:21;13.83;;;10.77;;
11125;SDS011;5617;54.046;10.676;2022-09-13T06:26:28;16.57;;;10.77;;
11125;SDS011;5617;54.046;10.676;2022-09-13T06:28:36;12.50;;;10.00;;
11125;SDS011;5617;54.046;10.676;2022-09-13T06:30:46;12.23;;;9.50;;
11125;SDS011;5617;54.046;10.676;2022-09-13T06:32:54;11.00;;;9.37;;
11125;SDS011;5617;54.046;10.676;2022-09-13T06:35:02;12.30;;;9.20;;
11125;SDS011;5617;54.046;10.676;2022-09-13T06:37:11;12.37;;;8.90;;
11125;SDS011;5617;54.046;10.676;2022-09-13T06:39:19;10.67;;;9.20;;
11125;SDS011;5617;54.046;10.676;2022-09-13T06:41:26;12.10;;;9.10;;
11125;SDS011;5617;54.046;10.676;2022-09-13T06:43:34;10.93;;;9.37;;
11125;SDS011;5617;54.046;10.676;2022-09-13T06:45:42;11.50;;;9.00;;
11125;SDS011;5617;54.046;10.676;2022-09-13T06:47:53;10.50;;;9.13;;
11125;SDS011;5617;54.046;10.676;2022-09-13T06:50:01;11.17;;;8.70;;
11125;SDS011;5617;54.046;10.676;2022-09-13T06:52:08;12.47;;;8.80;;
11125;SDS011;5617;54.046;10.676;2022-09-13T06:54:16;11.97;;;8.17;;
11125;SDS011;5617;54.046;10.676;2022-09-13T06:56:24;12.43;;;8.33;;
11125;SDS011;5617;54.046;10.676;2022-09-13T06:58:33;11.77;;;7.97;;
11125;SDS011;5617;54.046;10.676;2022-09-13T07:00:42;13.23;;;8.37;;
11125;SDS011;5617;54.046;10.676;2022-09-13T07:02:50;13.03;;;7.80;;
11125;SDS011;5617;54.046;10.676;2022-09-13T07:04:59;11.90;;;7.07;;
11125;SDS011;5617;54.046;10.676;2022-09-13T07:07:06;8.50;;;7.23;;
11125;SDS011;5617;54.046;10.676;2022-09-13T07:09:15;8.80;;;6.63;;
11125;SDS011;5617;54.046;10.676;2022-09-13T07:11:24;11.30;;;6.63;;
11125;SDS011;5617;54.046;10.676;2022-09-13T07:13:35;10.50;;;6.40;;
11125;SDS011;5617;54.046;10.676;2022-09-13T07:15:43;8.47;;;5.57;;
11125;SDS011;5617;54.046;10.676;2022-09-13T07:17:51;9.63;;;5.90;;
11125;SDS011;5617;54.046;10.676;2022-09-13T07:20:01;7.77;;;5.67;;
11125;SDS011;5617;54.046;10.676;2022-09-13T07:22:11;11.53;;;5.43;;
11125;SDS011;5617;54.046;10.676;2022-09-13T07:24:19;8.03;;;5.10;;
11125;SDS011;5617;54.046;10.676;2022-09-13T07:26:27;8.03;;;4.47;;
11125;SDS011;5617;54.046;10.676;2022-09-13T07:28:35;7.37;;;4.43;;
11125;SDS011;5617;54.046;10.676;2022-09-13T07:30:44;7.13;;;4.10;;
11125;SDS011;5617;54.046;10.676;2022-09-13T07:32:52;3.60;;;2.97;;
11125;SDS011;5617;54.046;10.676;2022-09-13T07:35:01;6.13;;;3.30;;
11125;SDS011;5617;54.046;10.676;2022-09-13T07:37:12;4.73;;;2.57;;
11125;SDS011;5617;54.046;10.676;2022-09-13T07:39:19;6.47;;;2.47;;
11125;SDS011;5617;54.046;10.676;2022-09-13T07:41:29;6.53;;;2.30;;
11125;SDS011;5617;54.046;10.676;2022-09-13T07:43:38;3.43;;;1.60;;
11125;SDS011;5617;54.046;10.676;2022-09-13T07:45:46;5.17;;;1.73;;
11125;SDS011;5617;54.046;10.676;2022-09-13T07:47:54;4.47;;;1.63;;
11125;SDS011;5617;54.046;10.676;2022-09-13T07:50:03;5.23;;;1.67;;
11125;SDS011;5617;54.046;10.676;2022-09-13T07:52:11;4.63;;;1.53;;
11125;SDS011;5617;54.046;10.676;2022-09-13T07:54:18;3.80;;;1.40;;
11125;SDS011;5617;54.046;10.676;2022-09-13T07:56:28;4.73;;;1.57;;
11125;SDS011;5617;54.046;10.676;2022-09-13T07:58:37;3.60;;;1.30;;
11125;SDS011;5617;54.046;10.676;2022-09-13T08:00:46;4.77;;;1.60;;
11125;SDS011;5617;54.046;10.676;2022-09-13T08:02:54;3.40;;;1.30;;
11125;SDS011;5617;54.046;10.676;2022-09-13T08:05:03;4.17;;;1.10;;
11125;SDS011;5617;54.046;10.676;2022-09-13T08:07:11;2.33;;;1.33;;
11125;SDS011;5617;54.046;10.676;2022-09-13T08:09:19;3.50;;;1.20;;
11125;SDS011;5617;54.046;10.676;2022-09-13T08:11:27;3.17;;;1.27;;
11125;SDS011;5617;54.046;10.676;2022-09-13T08:13:36;4.53;;;1.30;;
11125;SDS011;5617;54.046;10.676;2022-09-13T08:15:44;3.97;;;1.00;;
11125;SDS011;5617;54.046;10.676;2022-09-13T08:17:51;3.83;;;1.27;;
11125;SDS011;5617;54.046;10.676;2022-09-13T08:20:00;4.27;;;1.43;;
11125;SDS011;5617;54.046;10.676;2022-09-13T08:22:11;3.03;;;1.13;;
11125;SDS011;5617;54.046;10.676;2022-09-13T08:24:25;2.37;;;0.80;;
11125;SDS011;5617;54.046;10.676;2022-09-13T08:26:34;4.43;;;1.10;;
11125;SDS011;5617;54.046;10.676;2022-09-13T08:28:42;2.30;;;1.00;;
11125;SDS011;5617;54.046;10.676;2022-09-13T08:30:51;3.07;;;1.03;;
11125;SDS011;5617;54.046;10.676;2022-09-13T08:32:58;2.07;;;0.77;;
11125;SDS011;5617;54.046;10.676;2022-09-13T08:35:08;3.33;;;0.90;;
11125;SDS011;5617;54.046;10.676;2022-09-13T08:37:17;2.37;;;0.87;;
11125;SDS011;5617;54.046;10.676;2022-09-13T08:39:25;2.00;;;0.90;;
11125;SDS011;5617;54.046;10.676;2022-09-13T08:41:40;3.60;;;1.10;;
11125;SDS011;5617;54.046;10.676;2022-09-13T08:44:04;2.83;;;0.90;;
11125;SDS011;5617;54.046;10.676;2022-09-13T08:46:22;6.73;;;1.03;;
11125;SDS011;5617;54.046;10.676;2022-09-13T08:48:34;2.87;;;0.90;;
11125;SDS011;5617;54.046;10.676;2022-09-13T08:50:45;2.43;;;1.20;;
11125;SDS011;5617;54.046;10.676;2022-09-13T08:55:30;3.40;;;0.90;;
11125;SDS011;5617;54.046;10.676;2022-09-13T08:57:47;4.20;;;1.07;;
11125;SDS011;5617;54.046;10.676;2022-09-13T09:00:03;3.53;;;1.00;;
11125;SDS011;5617;54.046;10.676;2022-09-13T09:02:25;2.53;;;0.90;;
11125;SDS011;5617;54.046;10.676;2022-09-13T09:04:47;3.27;;;0.97;;
11125;SDS011;5617;54.046;10.676;2022-09-13T09:07:02;3.27;;;1.03;;
11125;SDS011;5617;54.046;10.676;2022-09-13T09:09:14;3.53;;;0.90;;
11125;SDS011;5617;54.046;10.676;2022-09-13T09:11:26;3.23;;;0.80;;
11125;SDS011;5617;54.046;10.676;2022-09-13T09:13:40;3.10;;;0.80;;
11125;SDS011;5617;54.046;10.676;2022-09-13T09:15:56;4.33;;;0.90;;
11125;SDS011;5617;54.046;10.676;2022-09-13T09:18:08;2.17;;;0.73;;
11125;SDS011;5617;54.046;10.676;2022-09-13T09:20:21;4.63;;;1.13;;
11125;SDS011;5617;54.046;10.676;2022-09-13T09:22:32;4.53;;;1.10;;
11125;SDS011;5617;54.046;10.676;2022-09-13T09:24:43;2.50;;;0.90;;
11125;SDS011;5617;54.046;10.676;2022-09-13T09:26:52;3.93;;;1.00;;
11125;SDS011;5617;54.046;10.676;2022-09-13T09:29:04;3.07;;;1.10;;
11125;SDS011;5617;54.046;10.676;2022-09-13T09:31:25;4.57;;;1.00;;
11125;SDS011;5617;54.046;10.676;2022-09-13T09:33:51;3.90;;;1.00;;
11125;SDS011;5617;54.046;10.676;2022-09-13T09:36:09;3.50;;;1.00;;
11125;SDS011;5617;54.046;10.676;2022-09-13T09:40:50;3.53;;;1.00;;
11125;SDS011;5617;54.046;10.676;2022-09-13T09:42:58;3.83;;;0.83;;
11125;SDS011;5617;54.046;10.676;2022-09-13T09:45:17;4.60;;;1.20;;
11125;SDS011;5617;54.046;10.676;2022-09-13T09:47:43;4.63;;;1.10;;
11125;SDS011;5617;54.046;10.676;2022-09-13T09:49:53;3.67;;;0.97;;
11125;SDS011;5617;54.046;10.676;2022-09-13T09:52:17;3.97;;;1.07;;
11125;SDS011;5617;54.046;10.676;2022-09-13T09:54:33;4.87;;;1.10;;
11125;SDS011;5617;54.046;10.676;2022-09-13T09:56:51;4.10;;;1.00;;
11125;SDS011;5617;54.046;10.676;2022-09-13T09:58:59;2.83;;;0.70;;
11125;SDS011;5617;54.046;10.676;2022-09-13T10:01:13;4.00;;;1.10;;
11125;SDS011;5617;54.046;10.676;2022-09-13T10:03:25;2.13;;;0.83;;
11125;SDS011;5617;54.046;10.676;2022-09-13T10:05:35;4.67;;;0.83;;
11125;SDS011;5617;54.046;10.676;2022-09-13T10:07:43;3.27;;;0.90;;
11125;SDS011;5617;54.046;10.676;2022-09-13T10:10:01;3.47;;;1.00;;
11125;SDS011;5617;54.046;10.676;2022-09-13T10:12:15;3.00;;;0.83;;
11125;SDS011;5617;54.046;10.676;2022-09-13T10:14:36;3.27;;;0.90;;
11125;SDS011;5617;54.046;10.676;2022-09-13T10:16:47;3.37;;;0.80;;
11125;SDS011;5617;54.046;10.676;2022-09-13T10:19:20;2.70;;;1.33;;
11125;SDS011;5617;54.046;10.676;2022-09-13T10:21:31;4.27;;;1.10;;
11125;SDS011;5617;54.046;10.676;2022-09-13T10:23:41;2.63;;;0.90;;
11125;SDS011;5617;54.046;10.676;2022-09-13T10:26:06;4.70;;;0.90;;
11125;SDS011;5617;54.046;10.676;2022-09-13T10:28:17;3.13;;;0.70;;
11125;SDS011;5617;54.046;10.676;2022-09-13T10:30:30;3.23;;;0.77;;
11125;SDS011;5617;54.046;10.676;2022-09-13T10:32:40;2.87;;;0.80;;
11125;SDS011;5617;54.046;10.676;2022-09-13T10:34:49;2.83;;;0.87;;
11125;SDS011;5617;54.046;10.676;2022-09-13T10:36:58;5.50;;;0.90;;
11125;SDS011;5617;54.046;10.676;2022-09-13T10:39:11;3.83;;;0.90;;
11125;SDS011;5617;54.046;10.676;2022-09-13T10:41:23;5.57;;;1.30;;
11125;SDS011;5617;54.046;10.676;2022-09-13T10:43:36;2.90;;;0.97;;
11125;SDS011;5617;54.046;10.676;2022-09-13T10:45:47;4.33;;;1.17;;
11125;SDS011;5617;54.046;10.676;2022-09-13T10:47:57;2.40;;;1.00;;
11125;SDS011;5617;54.046;10.676;2022-09-13T10:50:11;3.20;;;0.90;;
11125;SDS011;5617;54.046;10.676;2022-09-13T10:52:28;2.10;;;0.80;;
11125;SDS011;5617;54.046;10.676;2022-09-13T10:54:37;4.60;;;1.03;;
11125;SDS011;5617;54.046;10.676;2022-09-13T10:56:45;3.70;;;1.20;;
11125;SDS011;5617;54.046;10.676;2022-09-13T10:58:57;1.97;;;0.90;;
11125;SDS011;5617;54.046;10.676;2022-09-13T11:01:30;1.90;;;0.80;;
11125;SDS011;5617;54.046;10.676;2022-09-13T11:06:37;3.87;;;0.93;;
11125;SDS011;5617;54.046;10.676;2022-09-13T11:08:50;3.30;;;0.93;;
11125;SDS011;5617;54.046;10.676;2022-09-13T11:11:09;3.37;;;0.87;;
11125;SDS011;5617;54.046;10.676;2022-09-13T11:13:23;2.47;;;0.87;;
11125;SDS011;5617;54.046;10.676;2022-09-13T11:15:44;2.63;;;0.80;;
11125;SDS011;5617;54.046;10.676;2022-09-13T11:18:01;4.70;;;0.90;;
11125;SDS011;5617;54.046;10.676;2022-09-13T11:20:25;3.53;;;0.80;;
11125;SDS011;5617;54.046;10.676;2022-09-13T11:22:48;2.93;;;0.90;;
11125;SDS011;5617;54.046;10.676;2022-09-13T11:25:16;2.37;;;0.50;;
11125;SDS011;5617;54.046;10.676;2022-09-13T11:27:39;3.10;;;0.90;;
11125;SDS011;5617;54.046;10.676;2022-09-13T11:30:04;3.10;;;0.83;;
11125;SDS011;5617;54.046;10.676;2022-09-13T11:32:21;3.90;;;0.83;;
11125;SDS011;5617;54.046;10.676;2022-09-13T11:34:43;3.43;;;0.97;;
11125;SDS011;5617;54.046;10.676;2022-09-13T11:37:02;1.63;;;0.73;;
11125;SDS011;5617;54.046;10.676;2022-09-13T11:39:23;2.93;;;0.87;;
11125;SDS011;5617;54.046;10.676;2022-09-13T11:41:40;2.70;;;1.00;;
11125;SDS011;5617;54.046;10.676;2022-09-13T11:43:57;3.23;;;0.90;;
11125;SDS011;5617;54.046;10.676;2022-09-13T11:46:26;2.67;;;0.80;;
11125;SDS011;5617;54.046;10.676;2022-09-13T11:48:46;4.10;;;1.10;;
11125;SDS011;5617;54.046;10.676;2022-09-13T11:51:17;2.60;;;1.13;;
11125;SDS011;5617;54.046;10.676;2022-09-13T11:53:39;3.47;;;0.90;;
11125;SDS011;5617;54.046;10.676;2022-09-13T11:55:58;2.20;;;0.80;;
11125;SDS011;5617;54.046;10.676;2022-09-13T11:58:09;2.20;;;0.63;;
11125;SDS011;5617;54.046;10.676;2022-09-13T12:00:21;1.87;;;0.80;;
11125;SDS011;5617;54.046;10.676;2022-09-13T12:02:31;3.83;;;0.90;;
11125;SDS011;5617;54.046;10.676;2022-09-13T12:04:48;2.47;;;0.77;;
11125;SDS011;5617;54.046;10.676;2022-09-13T12:07:00;2.07;;;1.00;;
11125;SDS011;5617;54.046;10.676;2022-09-13T12:09:14;4.17;;;1.13;;
11125;SDS011;5617;54.046;10.676;2022-09-13T12:11:26;3.50;;;0.90;;
11125;SDS011;5617;54.046;10.676;2022-09-13T12:13:39;3.17;;;0.63;;
11125;SDS011;5617;54.046;10.676;2022-09-13T12:15:50;3.47;;;0.70;;
11125;SDS011;5617;54.046;10.676;2022-09-13T12:18:01;2.13;;;0.77;;
11125;SDS011;5617;54.046;10.676;2022-09-13T12:20:18;2.50;;;0.70;;
11125;SDS011;5617;54.046;10.676;2022-09-13T12:22:31;4.90;;;0.70;;
11125;SDS011;5617;54.046;10.676;2022-09-13T12:24:42;3.03;;;0.90;;
11125;SDS011;5617;54.046;10.676;2022-09-13T12:26:53;1.43;;;0.73;;
11125;SDS011;5617;54.046;10.676;2022-09-13T12:29:06;3.73;;;0.80;;
11125;SDS011;5617;54.046;10.676;2022-09-13T12:31:21;1.73;;;0.50;;
11125;SDS011;5617;54.046;10.676;2022-09-13T12:33:30;2.57;;;0.63;;
11125;SDS011;5617;54.046;10.676;2022-09-13T12:35:41;3.13;;;0.70;;
11125;SDS011;5617;54.046;10.676;2022-09-13T12:38:01;1.33;;;0.57;;
11125;SDS011;5617;54.046;10.676;2022-09-13T12:42:59;4.00;;;0.80;;
11125;SDS011;5617;54.046;10.676;2022-09-13T12:45:22;1.67;;;0.60;;
11125;SDS011;5617;54.046;10.676;2022-09-13T12:47:49;2.20;;;0.70;;
11125;SDS011;5617;54.046;10.676;2022-09-13T12:50:26;1.50;;;0.70;;
11125;SDS011;5617;54.046;10.676;2022-09-13T12:53:00;1.63;;;0.70;;
11125;SDS011;5617;54.046;10.676;2022-09-13T12:55:22;2.77;;;0.90;;
11125;SDS011;5617;54.046;10.676;2022-09-13T12:57:51;2.97;;;0.60;;
11125;SDS011;5617;54.046;10.676;2022-09-13T13:00:09;2.57;;;0.73;;
11125;SDS011;5617;54.046;10.676;2022-09-13T13:02:24;2.43;;;0.60;;
11125;SDS011;5617;54.046;10.676;2022-09-13T13:04:37;2.70;;;0.93;;
11125;SDS011;5617;54.046;10.676;2022-09-13T13:06:49;3.23;;;0.77;;
11125;SDS011;5617;54.046;10.676;2022-09-13T13:09:01;2.60;;;0.50;;
11125;SDS011;5617;54.046;10.676;2022-09-13T13:11:11;1.83;;;0.60;;
11125;SDS011;5617;54.046;10.676;2022-09-13T13:13:23;2.30;;;0.70;;
11125;SDS011;5617;54.046;10.676;2022-09-13T13:15:57;2.97;;;0.70;;
11125;SDS011;5617;54.046;10.676;2022-09-13T13:18:20;2.77;;;0.50;;
11125;SDS011;5617;54.046;10.676;2022-09-13T13:20:46;1.43;;;0.60;;
11125;SDS011;5617;54.046;10.676;2022-09-13T13:23:16;2.63;;;0.67;;
11125;SDS011;5617;54.046;10.676;2022-09-13T13:25:30;4.20;;;0.80;;
11125;SDS011;5617;54.046;10.676;2022-09-13T13:27:42;3.40;;;0.90;;